sensor_id;sensor_type;location;lat;lon;timestamp;pressure;altitude;pressure_sealevel;temperature;humidity
38612;BME280;24368;52.156;20.788;2023-04-16T00:04:35;100268.57;;;8.93;100.00
38612;BME280;24368;52.156;20.788;2023-04-16T00:09:36;100264.98;;;8.90;100.00
38612;BME280;24368;52.156;20.788;2023-04-16T00:14:37;100268.70;;;8.86;100.00
38612;BME280;24368;52.156;20.788;2023-04-16T00:19:38;100268.33;;;8.88;100.00
38612;BME280;24368;52.156;20.788;2023-04-16T00:24:39;100263.72;;;8.88;100.00
38612;BME280;24368;52.156;20.788;2023-04-16T00:29:41;100258.75;;;8.85;100.00
38612;BME280;24368;52.156;20.788;2023-04-16T00:34:43;100266.14;;;8.80;100.00
38612;BME280;24368;52.156;20.788;2023-04-16T00:39:44;100269.06;;;8.73;100.00
38612;BME280;24368;52.156;20.788;2023-04-16T00:44:45;100274.58;;;8.74;100.00
38612;BME280;24368;52.156;20.788;2023-04-16T00:49:46;100274.05;;;8.80;100.00
38612;BME280;24368;52.156;20.788;2023-04-16T00:54:48;100275.03;;;8.82;100.00
38612;BME280;24368;52.156;20.788;2023-04-16T00:59:50;100281.98;;;8.77;100.00
38612;BME280;24368;52.156;20.788;2023-04-16T01:04:51;100288.16;;;8.75;100.00
38612;BME280;24368;52.156;20.788;2023-04-16T01:09:52;100280.52;;;8.73;100.00
38612;BME280;24368;52.156;20.788;2023-04-16T01:14:54;100281.47;;;8.66;100.00
38612;BME280;24368;52.156;20.788;2023-04-16T01:19:59;100284.44;;;8.66;100.00
38612;BME280;24368;52.156;20.788;2023-04-16T01:25:00;100285.02;;;8.67;100.00
38612;BME280;24368;52.156;20.788;2023-04-16T01:30:02;100287.89;;;8.61;100.00
38612;BME280;24368;52.156;20.788;2023-04-16T01:35:04;100285.80;;;8.53;100.00
38612;BME280;24368;52.156;20.788;2023-04-16T01:40:06;100286.61;;;8.54;100.00
38612;BME280;24368;52.156;20.788;2023-04-16T01:45:08;100285.10;;;8.59;100.00
38612;BME280;24368;52.156;20.788;2023-04-16T01:50:10;100284.82;;;8.58;100.00
38612;BME280;24368;52.156;20.788;2023-04-16T01:55:11;100285.36;;;8.52;100.00
38612;BME280;24368;52.156;20.788;2023-04-16T02:00:13;100292.33;;;8.49;100.00
38612;BME280;24368;52.156;20.788;2023-04-16T02:05:15;100294.63;;;8.53;100.00
38612;BME280;24368;52.156;20.788;2023-04-16T02:10:16;100302.23;;;8.54;100.00
38612;BME280;24368;52.156;20.788;2023-04-16T02:15:17;100305.57;;;8.56;100.00
38612;BME280;24368;52.156;20.788;2023-04-16T02:20:18;100313.38;;;8.55;100.00
38612;BME280;24368;52.156;20.788;2023-04-16T02:25:19;100317.06;;;8.49;100.00
38612;BME280;24368;52.156;20.788;2023-04-16T02:30:21;100322.41;;;8.47;100.00
38612;BME280;24368;52.156;20.788;2023-04-16T02:35:22;100326.30;;;8.46;100.00
38612;BME280;24368;52.156;20.788;2023-04-16T02:40:23;100331.80;;;8.44;100.00
38612;BME280;24368;52.156;20.788;2023-04-16T02:45:24;100335.66;;;8.38;100.00
38612;BME280;24368;52.156;20.788;2023-04-16T02:50:26;100340.37;;;8.34;100.00
38612;BME280;24368;52.156;20.788;2023-04-16T02:55:27;100345.67;;;8.34;100.00
38612;BME280;24368;52.156;20.788;2023-04-16T03:00:29;100347.69;;;8.26;100.00
38612;BME280;24368;52.156;20.788;2023-04-16T03:05:31;100356.39;;;8.32;100.00
38612;BME280;24368;52.156;20.788;2023-04-16T03:10:33;100358.68;;;8.24;100.00
38612;BME280;24368;52.156;20.788;2023-04-16T03:15:35;100358.30;;;8.17;100.00
38612;BME280;24368;52.156;20.788;2023-04-16T03:20:38;100357.55;;;8.17;100.00
38612;BME280;24368;52.156;20.788;2023-04-16T03:25:39;100357.46;;;8.17;100.00
38612;BME280;24368;52.156;20.788;2023-04-16T03:30:49;100359.05;;;8.26;100.00
38612;BME280;24368;52.156;20.788;2023-04-16T03:35:55;100364.17;;;8.31;100.00
38612;BME280;24368;52.156;20.788;2023-04-16T03:40:57;100365.95;;;8.24;100.00
38612;BME280;24368;52.156;20.788;2023-04-16T03:45:58;100367.25;;;8.21;100.00
38612;BME280;24368;52.156;20.788;2023-04-16T03:50:59;100370.93;;;8.24;100.00
38612;BME280;24368;52.156;20.788;2023-04-16T03:56:00;100371.63;;;8.27;100.00
38612;BME280;24368;52.156;20.788;2023-04-16T04:01:01;100375.90;;;8.28;100.00
38612;BME280;24368;52.156;20.788;2023-04-16T04:06:07;100384.16;;;8.24;100.00
38612;BME280;24368;52.156;20.788;2023-04-16T04:11:08;100388.34;;;8.26;100.00
38612;BME280;24368;52.156;20.788;2023-04-16T04:16:10;100388.70;;;8.24;100.00
38612;BME280;24368;52.156;20.788;2023-04-16T04:21:11;100389.45;;;8.18;100.00
38612;BME280;24368;52.156;20.788;2023-04-16T04:26:12;100391.06;;;8.21;100.00
38612;BME280;24368;52.156;20.788;2023-04-16T04:31:14;100397.43;;;8.27;100.00
38612;BME280;24368;52.156;20.788;2023-04-16T04:36:15;100398.20;;;8.34;100.00
38612;BME280;24368;52.156;20.788;2023-04-16T04:41:16;100405.02;;;8.34;100.00
38612;BME280;24368;52.156;20.788;2023-04-16T04:46:17;100407.61;;;8.32;100.00
38612;BME280;24368;52.156;20.788;2023-04-16T04:51:18;100411.31;;;8.36;100.00
38612;BME280;24368;52.156;20.788;2023-04-16T04:56:20;100418.45;;;8.35;100.00
38612;BME280;24368;52.156;20.788;2023-04-16T05:01:24;100419.80;;;8.36;100.00
38612;BME280;24368;52.156;20.788;2023-04-16T05:06:25;100424.25;;;8.35;100.00
38612;BME280;24368;52.156;20.788;2023-04-16T05:11:28;100423.40;;;8.39;100.00
38612;BME280;24368;52.156;20.788;2023-04-16T05:16:29;100429.14;;;8.39;100.00
38612;BME280;24368;52.156;20.788;2023-04-16T05:21:30;100430.86;;;8.49;100.00
38612;BME280;24368;52.156;20.788;2023-04-16T05:26:32;100432.70;;;8.60;100.00
38612;BME280;24368;52.156;20.788;2023-04-16T05:31:33;100438.59;;;8.63;100.00
38612;BME280;24368;52.156;20.788;2023-04-16T05:36:34;100438.34;;;8.68;100.00
38612;BME280;24368;52.156;20.788;2023-04-16T05:41:35;100442.92;;;8.68;100.00
38612;BME280;24368;52.156;20.788;2023-04-16T05:46:37;100446.91;;;8.66;100.00
38612;BME280;24368;52.156;20.788;2023-04-16T05:51:38;100445.07;;;8.75;100.00
38612;BME280;24368;52.156;20.788;2023-04-16T05:56:39;100452.48;;;8.80;100.00
38612;BME280;24368;52.156;20.788;2023-04-16T06:01:43;100460.98;;;8.79;100.00
38612;BME280;24368;52.156;20.788;2023-04-16T06:06:44;100465.29;;;8.77;100.00
38612;BME280;24368;52.156;20.788;2023-04-16T06:11:46;100466.89;;;8.80;100.00
38612;BME280;24368;52.156;20.788;2023-04-16T06:16:47;100466.45;;;8.85;100.00
38612;BME280;24368;52.156;20.788;2023-04-16T06:21:49;100476.48;;;8.89;100.00
38612;BME280;24368;52.156;20.788;2023-04-16T06:26:51;100487.80;;;8.90;100.00
38612;BME280;24368;52.156;20.788;2023-04-16T06:31:53;100494.80;;;8.81;100.00
38612;BME280;24368;52.156;20.788;2023-04-16T06:36:54;100493.89;;;8.68;100.00
38612;BME280;24368;52.156;20.788;2023-04-16T06:41:56;100490.92;;;8.67;100.00
38612;BME280;24368;52.156;20.788;2023-04-16T06:46:57;100489.25;;;8.76;100.00
38612;BME280;24368;52.156;20.788;2023-04-16T06:51:58;100490.89;;;8.91;100.00
38612;BME280;24368;52.156;20.788;2023-04-16T06:57:00;100496.88;;;8.96;100.00
38612;BME280;24368;52.156;20.788;2023-04-16T07:02:01;100499.90;;;8.82;100.00
38612;BME280;24368;52.156;20.788;2023-04-16T07:07:03;100509.03;;;8.88;100.00
38612;BME280;24368;52.156;20.788;2023-04-16T07:12:04;100510.86;;;8.91;100.00
38612;BME280;24368;52.156;20.788;2023-04-16T07:17:07;100515.72;;;8.92;100.00
38612;BME280;24368;52.156;20.788;2023-04-16T07:22:08;100522.77;;;8.97;100.00
38612;BME280;24368;52.156;20.788;2023-04-16T07:27:19;100528.16;;;9.07;100.00
38612;BME280;24368;52.156;20.788;2023-04-16T07:32:20;100532.65;;;9.13;100.00
38612;BME280;24368;52.156;20.788;2023-04-16T07:37:22;100539.36;;;9.13;100.00
38612;BME280;24368;52.156;20.788;2023-04-16T07:42:23;100536.24;;;9.10;100.00
38612;BME280;24368;52.156;20.788;2023-04-16T07:47:25;100536.52;;;9.13;100.00
38612;BME280;24368;52.156;20.788;2023-04-16T07:52:27;100542.05;;;9.27;100.00
38612;BME280;24368;52.156;20.788;2023-04-16T07:57:28;100554.92;;;9.32;100.00
38612;BME280;24368;52.156;20.788;2023-04-16T08:02:29;100568.59;;;9.23;100.00
38612;BME280;24368;52.156;20.788;2023-04-16T08:07:31;100572.27;;;9.29;100.00
38612;BME280;24368;52.156;20.788;2023-04-16T08:12:32;100569.63;;;9.31;100.00
38612;BME280;24368;52.156;20.788;2023-04-16T08:17:34;100569.63;;;9.44;100.00
38612;BME280;24368;52.156;20.788;2023-04-16T08:22:36;100566.27;;;9.58;100.00
38612;BME280;24368;52.156;20.788;2023-04-16T08:27:38;100570.85;;;9.71;100.00
38612;BME280;24368;52.156;20.788;2023-04-16T08:32:40;100569.91;;;9.79;100.00
38612;BME280;24368;52.156;20.788;2023-04-16T08:37:41;100574.71;;;9.85;100.00
38612;BME280;24368;52.156;20.788;2023-04-16T08:42:50;100580.48;;;9.87;100.00
38612;BME280;24368;52.156;20.788;2023-04-16T08:47:54;100584.79;;;9.91;100.00
38612;BME280;24368;52.156;20.788;2023-04-16T08:53:04;100588.52;;;10.06;100.00
38612;BME280;24368;52.156;20.788;2023-04-16T08:58:13;100591.02;;;10.19;100.00
38612;BME280;24368;52.156;20.788;2023-04-16T09:03:15;100591.28;;;10.23;100.00
38612;BME280;24368;52.156;20.788;2023-04-16T09:08:16;100594.14;;;10.25;100.00
38612;BME280;24368;52.156;20.788;2023-04-16T09:13:19;100593.61;;;10.25;100.00
38612;BME280;24368;52.156;20.788;2023-04-16T09:18:22;100602.65;;;10.24;100.00
38612;BME280;24368;52.156;20.788;2023-04-16T09:23:24;100598.59;;;10.39;100.00
38612;BME280;24368;52.156;20.788;2023-04-16T09:28:41;100599.80;;;10.48;100.00
38612;BME280;24368;52.156;20.788;2023-04-16T09:34:03;100607.40;;;10.60;100.00
38612;BME280;24368;52.156;20.788;2023-04-16T09:39:04;100617.05;;;10.54;100.00
38612;BME280;24368;52.156;20.788;2023-04-16T09:44:05;100622.23;;;10.61;100.00
38612;BME280;24368;52.156;20.788;2023-04-16T09:49:13;100620.94;;;10.63;100.00
38612;BME280;24368;52.156;20.788;2023-04-16T09:54:15;100624.65;;;10.71;100.00
38612;BME280;24368;52.156;20.788;2023-04-16T09:59:17;100625.57;;;10.81;100.00
38612;BME280;24368;52.156;20.788;2023-04-16T10:04:19;100628.78;;;10.91;100.00
38612;BME280;24368;52.156;20.788;2023-04-16T10:09:21;100632.40;;;10.91;100.00
38612;BME280;24368;52.156;20.788;2023-04-16T10:14:23;100636.48;;;10.94;100.00
38612;BME280;24368;52.156;20.788;2023-04-16T10:19:25;100634.52;;;10.99;100.00
38612;BME280;24368;52.156;20.788;2023-04-16T10:24:28;100639.06;;;11.11;100.00
38612;BME280;24368;52.156;20.788;2023-04-16T10:29:30;100644.13;;;11.22;100.00
38612;BME280;24368;52.156;20.788;2023-04-16T10:34:33;100653.36;;;11.27;100.00
38612;BME280;24368;52.156;20.788;2023-04-16T10:39:35;100655.33;;;11.28;100.00
38612;BME280;24368;52.156;20.788;2023-04-16T10:44:40;100651.58;;;11.36;100.00
38612;BME280;24368;52.156;20.788;2023-04-16T10:49:41;100650.36;;;11.41;100.00
38612;BME280;24368;52.156;20.788;2023-04-16T10:54:46;100654.33;;;11.44;100.00
38612;BME280;24368;52.156;20.788;2023-04-16T10:59:48;100656.33;;;11.50;100.00
38612;BME280;24368;52.156;20.788;2023-04-16T11:04:49;100656.55;;;11.62;100.00
38612;BME280;24368;52.156;20.788;2023-04-16T11:15:07;100666.27;;;11.83;100.00
38612;BME280;24368;52.156;20.788;2023-04-16T11:20:15;100668.67;;;11.77;100.00
38612;BME280;24368;52.156;20.788;2023-04-16T11:30:29;100672.90;;;11.50;100.00
38612;BME280;24368;52.156;20.788;2023-04-16T11:35:31;100668.32;;;11.45;100.00
38612;BME280;24368;52.156;20.788;2023-04-16T11:40:32;100674.98;;;11.43;100.00
38612;BME280;24368;52.156;20.788;2023-04-16T11:45:33;100672.79;;;11.46;100.00
38612;BME280;24368;52.156;20.788;2023-04-16T11:50:35;100677.61;;;11.49;100.00
38612;BME280;24368;52.156;20.788;2023-04-16T11:55:44;100670.94;;;11.52;100.00
38612;BME280;24368;52.156;20.788;2023-04-16T12:00:45;100673.55;;;11.62;100.00
38612;BME280;24368;52.156;20.788;2023-04-16T12:05:47;100667.85;;;11.94;100.00
38612;BME280;24368;52.156;20.788;2023-04-16T12:10:54;100673.17;;;12.15;100.00
38612;BME280;24368;52.156;20.788;2023-04-16T12:15:56;100673.00;;;12.16;100.00
38612;BME280;24368;52.156;20.788;2023-04-16T12:20:57;100667.66;;;13.76;97.08
38612;BME280;24368;52.156;20.788;2023-04-16T12:26:06;100656.81;;;16.34;80.27
38612;BME280;24368;52.156;20.788;2023-04-16T12:31:10;100655.34;;;16.62;76.26
38612;BME280;24368;52.156;20.788;2023-04-16T12:36:18;100654.45;;;15.46;76.95
38612;BME280;24368;52.156;20.788;2023-04-16T12:41:20;100652.29;;;14.80;78.64
38612;BME280;24368;52.156;20.788;2023-04-16T12:46:25;100651.59;;;14.43;80.09
38612;BME280;24368;52.156;20.788;2023-04-16T12:51:28;100647.63;;;14.07;83.91
38612;BME280;24368;52.156;20.788;2023-04-16T12:56:30;100646.05;;;14.01;84.02
38612;BME280;24368;52.156;20.788;2023-04-16T13:01:31;100642.60;;;13.56;84.58
38612;BME280;24368;52.156;20.788;2023-04-16T13:06:36;100644.69;;;13.37;89.30
38612;BME280;24368;52.156;20.788;2023-04-16T13:11:37;100645.96;;;13.48;89.07
38612;BME280;24368;52.156;20.788;2023-04-16T13:16:39;100647.38;;;14.49;83.95
38612;BME280;24368;52.156;20.788;2023-04-16T13:21:40;100642.73;;;15.27;79.96
38612;BME280;24368;52.156;20.788;2023-04-16T13:26:44;100640.91;;;16.40;75.15
38612;BME280;24368;52.156;20.788;2023-04-16T13:31:45;100635.91;;;16.14;75.63
38612;BME280;24368;52.156;20.788;2023-04-16T13:36:46;100639.90;;;15.29;79.93
38612;BME280;24368;52.156;20.788;2023-04-16T13:41:48;100648.05;;;15.04;82.78
38612;BME280;24368;52.156;20.788;2023-04-16T13:46:50;100644.39;;;17.29;73.27
38612;BME280;24368;52.156;20.788;2023-04-16T13:51:52;100644.10;;;16.96;72.10
38612;BME280;24368;52.156;20.788;2023-04-16T13:56:53;100648.80;;;17.00;73.03
38612;BME280;24368;52.156;20.788;2023-04-16T14:01:55;100649.77;;;17.11;72.06
38612;BME280;24368;52.156;20.788;2023-04-16T14:06:56;100646.51;;;15.91;77.83
38612;BME280;24368;52.156;20.788;2023-04-16T14:11:57;100654.50;;;15.39;79.45
38612;BME280;24368;52.156;20.788;2023-04-16T14:16:58;100647.90;;;14.96;80.97
38612;BME280;24368;52.156;20.788;2023-04-16T14:22:00;100649.63;;;14.92;80.89
38612;BME280;24368;52.156;20.788;2023-04-16T14:27:01;100647.79;;;15.58;78.20
38612;BME280;24368;52.156;20.788;2023-04-16T14:32:03;100651.45;;;17.00;73.78
38612;BME280;24368;52.156;20.788;2023-04-16T14:37:06;100647.36;;;17.53;70.69
38612;BME280;24368;52.156;20.788;2023-04-16T14:42:09;100649.96;;;18.47;66.27
38612;BME280;24368;52.156;20.788;2023-04-16T14:47:11;100649.64;;;18.66;65.85
38612;BME280;24368;52.156;20.788;2023-04-16T14:52:12;100653.04;;;19.04;64.62
38612;BME280;24368;52.156;20.788;2023-04-16T14:57:13;100661.23;;;18.26;67.56
38612;BME280;24368;52.156;20.788;2023-04-16T15:02:15;100656.90;;;18.46;64.81
38612;BME280;24368;52.156;20.788;2023-04-16T15:07:16;100662.96;;;18.92;64.19
38612;BME280;24368;52.156;20.788;2023-04-16T15:12:17;100664.36;;;17.82;67.60
38612;BME280;24368;52.156;20.788;2023-04-16T15:17:19;100666.40;;;17.18;70.92
38612;BME280;24368;52.156;20.788;2023-04-16T15:22:21;100666.36;;;17.51;70.24
38612;BME280;24368;52.156;20.788;2023-04-16T15:27:22;100666.80;;;17.25;69.74
38612;BME280;24368;52.156;20.788;2023-04-16T15:32:23;100668.36;;;16.56;71.65
38612;BME280;24368;52.156;20.788;2023-04-16T15:37:25;100670.95;;;16.48;73.66
38612;BME280;24368;52.156;20.788;2023-04-16T15:42:26;100669.48;;;16.58;72.78
38612;BME280;24368;52.156;20.788;2023-04-16T15:47:27;100670.79;;;16.48;73.35
38612;BME280;24368;52.156;20.788;2023-04-16T15:52:30;100675.95;;;16.26;73.67
38612;BME280;24368;52.156;20.788;2023-04-16T15:57:31;100675.70;;;16.13;75.56
38612;BME280;24368;52.156;20.788;2023-04-16T16:02:32;100679.41;;;15.56;77.29
38612;BME280;24368;52.156;20.788;2023-04-16T16:07:34;100687.05;;;14.92;80.02
38612;BME280;24368;52.156;20.788;2023-04-16T16:12:35;100694.90;;;14.48;82.64
38612;BME280;24368;52.156;20.788;2023-04-16T16:17:37;100699.81;;;14.13;84.72
38612;BME280;24368;52.156;20.788;2023-04-16T16:22:39;100705.81;;;13.87;85.68
38612;BME280;24368;52.156;20.788;2023-04-16T16:27:41;100711.20;;;13.65;85.98
38612;BME280;24368;52.156;20.788;2023-04-16T16:32:43;100713.21;;;13.48;86.89
38612;BME280;24368;52.156;20.788;2023-04-16T16:37:44;100716.80;;;13.28;88.61
38612;BME280;24368;52.156;20.788;2023-04-16T16:42:50;100720.88;;;13.19;89.15
38612;BME280;24368;52.156;20.788;2023-04-16T16:47:51;100728.89;;;13.43;88.38
38612;BME280;24368;52.156;20.788;2023-04-16T16:52:53;100735.83;;;13.48;89.53
38612;BME280;24368;52.156;20.788;2023-04-16T16:57:54;100742.83;;;13.53;90.38
38612;BME280;24368;52.156;20.788;2023-04-16T17:02:56;100748.35;;;13.35;90.18
38612;BME280;24368;52.156;20.788;2023-04-16T17:07:57;100752.17;;;13.11;91.93
38612;BME280;24368;52.156;20.788;2023-04-16T17:12:59;100753.94;;;12.89;93.68
38612;BME280;24368;52.156;20.788;2023-04-16T17:18:00;100761.25;;;12.73;95.68
38612;BME280;24368;52.156;20.788;2023-04-16T17:23:04;100760.67;;;12.51;97.10
38612;BME280;24368;52.156;20.788;2023-04-16T17:28:06;100763.75;;;12.29;98.40
38612;BME280;24368;52.156;20.788;2023-04-16T17:33:07;100775.42;;;12.19;99.65
38612;BME280;24368;52.156;20.788;2023-04-16T17:38:09;100778.77;;;12.15;99.92
38612;BME280;24368;52.156;20.788;2023-04-16T17:43:13;100779.92;;;12.02;100.00
38612;BME280;24368;52.156;20.788;2023-04-16T17:48:14;100785.59;;;11.85;100.00
38612;BME280;24368;52.156;20.788;2023-04-16T17:53:23;100793.79;;;11.65;100.00
38612;BME280;24368;52.156;20.788;2023-04-16T17:58:24;100802.06;;;11.56;100.00
38612;BME280;24368;52.156;20.788;2023-04-16T18:03:26;100807.85;;;11.49;100.00
38612;BME280;24368;52.156;20.788;2023-04-16T18:08:27;100808.73;;;11.37;100.00
38612;BME280;24368;52.156;20.788;2023-04-16T18:13:29;100816.34;;;11.34;100.00
38612;BME280;24368;52.156;20.788;2023-04-16T18:18:30;100817.73;;;11.31;100.00
38612;BME280;24368;52.156;20.788;2023-04-16T18:23:31;100823.83;;;11.30;100.00
38612;BME280;24368;52.156;20.788;2023-04-16T18:28:37;100832.95;;;11.18;100.00
38612;BME280;24368;52.156;20.788;2023-04-16T18:33:38;100832.55;;;11.01;100.00
38612;BME280;24368;52.156;20.788;2023-04-16T18:38:40;100835.13;;;10.92;100.00
38612;BME280;24368;52.156;20.788;2023-04-16T18:43:41;100839.02;;;10.81;100.00
38612;BME280;24368;52.156;20.788;2023-04-16T18:48:43;100834.64;;;10.77;100.00
38612;BME280;24368;52.156;20.788;2023-04-16T18:53:45;100833.04;;;10.75;100.00
38612;BME280;24368;52.156;20.788;2023-04-16T18:58:46;100835.65;;;10.76;100.00
38612;BME280;24368;52.156;20.788;2023-04-16T19:03:48;100840.27;;;10.64;100.00
38612;BME280;24368;52.156;20.788;2023-04-16T19:08:51;100838.66;;;10.59;100.00
38612;BME280;24368;52.156;20.788;2023-04-16T19:13:53;100837.91;;;10.48;100.00
38612;BME280;24368;52.156;20.788;2023-04-16T19:18:54;100839.70;;;10.38;100.00
38612;BME280;24368;52.156;20.788;2023-04-16T19:23:56;100837.80;;;10.28;100.00
38612;BME280;24368;52.156;20.788;2023-04-16T19:28:58;100838.13;;;10.18;100.00
38612;BME280;24368;52.156;20.788;2023-04-16T19:33:59;100835.18;;;10.14;100.00
38612;BME280;24368;52.156;20.788;2023-04-16T19:39:01;100836.52;;;10.13;100.00
38612;BME280;24368;52.156;20.788;2023-04-16T19:44:02;100833.17;;;10.13;100.00
38612;BME280;24368;52.156;20.788;2023-04-16T19:49:03;100834.63;;;10.12;100.00
38612;BME280;24368;52.156;20.788;2023-04-16T19:54:06;100834.75;;;10.01;100.00
38612;BME280;24368;52.156;20.788;2023-04-16T19:59:08;100832.11;;;9.87;100.00
38612;BME280;24368;52.156;20.788;2023-04-16T20:04:09;100832.83;;;9.81;100.00
38612;BME280;24368;52.156;20.788;2023-04-16T20:09:11;100835.98;;;9.75;100.00
38612;BME280;24368;52.156;20.788;2023-04-16T20:14:13;100835.96;;;9.64;100.00
38612;BME280;24368;52.156;20.788;2023-04-16T20:19:14;100841.31;;;9.57;100.00
38612;BME280;24368;52.156;20.788;2023-04-16T20:24:16;100842.40;;;9.50;100.00
38612;BME280;24368;52.156;20.788;2023-04-16T20:29:17;100844.35;;;9.50;100.00
38612;BME280;24368;52.156;20.788;2023-04-16T20:34:19;100845.27;;;9.56;100.00
38612;BME280;24368;52.156;20.788;2023-04-16T20:39:20;100847.02;;;9.52;100.00
38612;BME280;24368;52.156;20.788;2023-04-16T20:44:23;100851.07;;;9.48;100.00
38612;BME280;24368;52.156;20.788;2023-04-16T20:49:42;100843.84;;;9.36;100.00
38612;BME280;24368;52.156;20.788;2023-04-16T20:55:16;100843.45;;;9.21;100.00
38612;BME280;24368;52.156;20.788;2023-04-16T21:00:17;100841.20;;;9.14;100.00
38612;BME280;24368;52.156;20.788;2023-04-16T21:05:19;100843.84;;;9.06;100.00
38612;BME280;24368;52.156;20.788;2023-04-16T21:10:21;100836.58;;;9.02;100.00
38612;BME280;24368;52.156;20.788;2023-04-16T21:15:22;100831.93;;;9.05;100.00
38612;BME280;24368;52.156;20.788;2023-04-16T21:20:25;100831.30;;;9.09;100.00
38612;BME280;24368;52.156;20.788;2023-04-16T21:25:26;100832.17;;;9.04;100.00
38612;BME280;24368;52.156;20.788;2023-04-16T21:30:27;100832.34;;;8.99;100.00
38612;BME280;24368;52.156;20.788;2023-04-16T21:35:32;100830.78;;;8.92;100.00
38612;BME280;24368;52.156;20.788;2023-04-16T21:40:33;100835.73;;;8.88;100.00
38612;BME280;24368;52.156;20.788;2023-04-16T21:45:34;100837.02;;;8.91;100.00
38612;BME280;24368;52.156;20.788;2023-04-16T21:50:36;100837.00;;;8.92;100.00
38612;BME280;24368;52.156;20.788;2023-04-16T21:55:37;100837.82;;;8.90;100.00
38612;BME280;24368;52.156;20.788;2023-04-16T22:00:40;100834.92;;;8.89;100.00
38612;BME280;24368;52.156;20.788;2023-04-16T22:05:41;100835.81;;;8.85;100.00
38612;BME280;24368;52.156;20.788;2023-04-16T22:10:43;100836.02;;;8.76;100.00
38612;BME280;24368;52.156;20.788;2023-04-16T22:15:45;100833.67;;;8.71;100.00
38612;BME280;24368;52.156;20.788;2023-04-16T22:20:47;100835.46;;;8.70;100.00
38612;BME280;24368;52.156;20.788;2023-04-16T22:25:54;100830.11;;;8.71;100.00
38612;BME280;24368;52.156;20.788;2023-04-16T22:30:56;100831.92;;;8.73;100.00
38612;BME280;24368;52.156;20.788;2023-04-16T22:35:58;100835.41;;;8.67;100.00
38612;BME280;24368;52.156;20.788;2023-04-16T22:41:00;100832.88;;;8.62;100.00
38612;BME280;24368;52.156;20.788;2023-04-16T22:46:05;100836.65;;;8.65;100.00
38612;BME280;24368;52.156;20.788;2023-04-16T22:51:07;100834.34;;;8.63;100.00
38612;BME280;24368;52.156;20.788;2023-04-16T22:56:18;100834.92;;;8.68;100.00
38612;BME280;24368;52.156;20.788;2023-04-16T23:01:20;100837.64;;;8.78;100.00
38612;BME280;24368;52.156;20.788;2023-04-16T23:06:21;100837.18;;;8.85;100.00
38612;BME280;24368;52.156;20.788;2023-04-16T23:11:22;100833.92;;;8.88;100.00
38612;BME280;24368;52.156;20.788;2023-04-16T23:16:24;100834.52;;;8.86;100.00
38612;BME280;24368;52.156;20.788;2023-04-16T23:21:25;100833.83;;;8.81;100.00
38612;BME280;24368;52.156;20.788;2023-04-16T23:26:27;100830.77;;;8.80;100.00
38612;BME280;24368;52.156;20.788;2023-04-16T23:31:28;100828.36;;;8.81;100.00
38612;BME280;24368;52.156;20.788;2023-04-16T23:36:30;100827.23;;;8.84;100.00
38612;BME280;24368;52.156;20.788;2023-04-16T23:41:31;100823.10;;;8.86;100.00
38612;BME280;24368;52.156;20.788;2023-04-16T23:46:32;100825.52;;;8.80;100.00
38612;BME280;24368;52.156;20.788;2023-04-16T23:51:34;100824.45;;;8.76;100.00
38612;BME280;24368;52.156;20.788;2023-04-16T23:56:35;100824.80;;;8.72;100.00
